TCA7378 TTPP-SVMG
Flight info
| Callsign | TCA7378 |
|---|---|
| Flight time | 0h 39m |
| Altitude | 26000 |
| Route | POS UP671 MEGIR UW52 ESNAP/N0405F240 A563 MTA |
| Aircraft | C25B/M-SDE2E3FGHRWXY/LB1 |
Departure
| Time | 2026-04-23 21:21 |
|---|---|
| Airport | Piarco International Airport (TTPP) |
Arrival
| Time | 2026-04-23 22:00 |
|---|---|
| Airport | Del Caribe Santiago Mariño International Airport (SVMG) |
| Time | Latitude | Longitude | Altitude | Speed | Heading |
|---|---|---|---|---|---|
| 2026-04-23 21:13 | 10.59363 | -61.34321 | 12 ft | 0 kts | 310° |
| 2026-04-23 21:17 | 10.59386 | -61.34385 | 12 ft | 13 kts | 268° |
| 2026-04-23 21:18 | 10.59384 | -61.34455 | 12 ft | 17 kts | 270° |
| 2026-04-23 21:18 | 10.59384 | -61.34467 | 12 ft | 0 kts | 270° |
| 2026-04-23 21:18 | 10.59384 | -61.34468 | 12 ft | 0 kts | 271° |
| 2026-04-23 21:18 | 10.59384 | -61.34471 | 12 ft | 5 kts | 271° |
| 2026-04-23 21:19 | 10.59419 | -61.34535 | 12 ft | 10 kts | 21° |
| 2026-04-23 21:19 | 10.59443 | -61.34528 | 12 ft | 0 kts | 3° |
| 2026-04-23 21:19 | 10.59482 | -61.34528 | 12 ft | 10 kts | 357° |
| 2026-04-23 21:20 | 10.59538 | -61.34508 | 11 ft | 7 kts | 100° |
| 2026-04-23 21:20 | 10.59535 | -61.34495 | 11 ft | 0 kts | 87° |
| 2026-04-23 21:20 | 10.59535 | -61.34493 | 11 ft | 6 kts | 87° |
| 2026-04-23 21:20 | 10.59532 | -61.34041 | 16 ft | 122 kts | 92° |
| 2026-04-23 21:21 | 10.59507 | -61.32978 | 723 ft | 170 kts | 92° |
| 2026-04-23 21:21 | 10.59491 | -61.31671 | 1918 ft | 199 kts | 92° |
| 2026-04-23 21:21 | 10.59454 | -61.30181 | 2860 ft | 222 kts | 92° |
| 2026-04-23 21:21 | 10.59400 | -61.28603 | 4034 ft | 225 kts | 93° |
| 2026-04-23 21:22 | 10.58830 | -61.27122 | 5059 ft | 236 kts | 133° |
| 2026-04-23 21:22 | 10.57362 | -61.26409 | 6112 ft | 243 kts | 173° |
| 2026-04-23 21:22 | 10.55736 | -61.26745 | 7200 ft | 245 kts | 205° |
| 2026-04-23 21:22 | 10.54481 | -61.27925 | 8195 ft | 253 kts | 235° |
| 2026-04-23 21:23 | 10.53531 | -61.29441 | 9228 ft | 257 kts | 237° |
| 2026-04-23 21:23 | 10.52568 | -61.30977 | 10187 ft | 259 kts | 235° |
| 2026-04-23 21:23 | 10.51506 | -61.32470 | 11178 ft | 260 kts | 232° |
| 2026-04-23 21:23 | 10.50412 | -61.33946 | 12122 ft | 264 kts | 233° |
| 2026-04-23 21:24 | 10.49333 | -61.35475 | 13083 ft | 267 kts | 233° |
| 2026-04-23 21:24 | 10.48234 | -61.37016 | 13931 ft | 272 kts | 234° |
| 2026-04-23 21:24 | 10.47338 | -61.38725 | 14720 ft | 279 kts | 251° |
| 2026-04-23 21:24 | 10.46912 | -61.40632 | 15535 ft | 284 kts | 263° |
| 2026-04-23 21:25 | 10.47012 | -61.42650 | 16332 ft | 289 kts | 276° |
| 2026-04-23 21:25 | 10.47218 | -61.44698 | 17124 ft | 294 kts | 275° |
| 2026-04-23 21:25 | 10.47426 | -61.46779 | 17889 ft | 299 kts | 276° |
| 2026-04-23 21:25 | 10.47657 | -61.48890 | 18626 ft | 303 kts | 276° |
| 2026-04-23 21:26 | 10.47888 | -61.51032 | 19376 ft | 307 kts | 276° |
| 2026-04-23 21:26 | 10.48109 | -61.53199 | 20126 ft | 310 kts | 276° |
| 2026-04-23 21:26 | 10.48340 | -61.55383 | 20826 ft | 314 kts | 276° |
| 2026-04-23 21:26 | 10.48570 | -61.57570 | 21502 ft | 317 kts | 276° |
| 2026-04-23 21:27 | 10.48884 | -61.60574 | 22432 ft | 321 kts | 276° |
| 2026-04-23 21:27 | 10.49042 | -61.62072 | 22862 ft | 324 kts | 276° |
| 2026-04-23 21:27 | 10.49279 | -61.64361 | 23515 ft | 327 kts | 276° |
| 2026-04-23 21:27 | 10.49525 | -61.66668 | 24149 ft | 330 kts | 276° |
| 2026-04-23 21:28 | 10.49767 | -61.69001 | 24772 ft | 333 kts | 276° |
| 2026-04-23 21:28 | 10.50015 | -61.71350 | 25381 ft | 336 kts | 276° |
| 2026-04-23 21:28 | 10.50260 | -61.73727 | 25869 ft | 343 kts | 276° |
| 2026-04-23 21:28 | 10.50516 | -61.76177 | 25892 ft | 363 kts | 276° |
| 2026-04-23 21:29 | 10.50791 | -61.78793 | 25901 ft | 381 kts | 276° |
| 2026-04-23 21:29 | 10.51072 | -61.81525 | 25898 ft | 396 kts | 276° |
| 2026-04-23 21:29 | 10.51370 | -61.84349 | 25898 ft | 408 kts | 276° |
| 2026-04-23 21:29 | 10.51671 | -61.87241 | 25898 ft | 416 kts | 276° |
| 2026-04-23 21:30 | 10.51974 | -61.90195 | 25896 ft | 423 kts | 276° |
| 2026-04-23 21:30 | 10.52290 | -61.93188 | 25900 ft | 429 kts | 276° |
| 2026-04-23 21:30 | 10.52602 | -61.96215 | 25899 ft | 433 kts | 276° |
| 2026-04-23 21:30 | 10.52920 | -61.99267 | 25900 ft | 436 kts | 276° |
| 2026-04-23 21:31 | 10.53234 | -62.02295 | 25901 ft | 436 kts | 276° |
| 2026-04-23 21:31 | 10.53542 | -62.05308 | 25897 ft | 420 kts | 276° |
| 2026-04-23 21:31 | 10.53848 | -62.08214 | 25898 ft | 406 kts | 276° |
| 2026-04-23 21:31 | 10.54138 | -62.11030 | 25889 ft | 396 kts | 276° |
| 2026-04-23 21:32 | 10.54419 | -62.13778 | 25881 ft | 387 kts | 276° |
| 2026-04-23 21:32 | 10.54701 | -62.16471 | 25879 ft | 380 kts | 276° |
| 2026-04-23 21:32 | 10.54973 | -62.19119 | 25879 ft | 374 kts | 276° |
| 2026-04-23 21:32 | 10.55244 | -62.21734 | 25879 ft | 369 kts | 276° |
| 2026-04-23 21:33 | 10.55508 | -62.24311 | 25878 ft | 365 kts | 276° |
| 2026-04-23 21:33 | 10.55769 | -62.26861 | 25881 ft | 361 kts | 276° |
| 2026-04-23 21:33 | 10.56028 | -62.29359 | 25881 ft | 358 kts | 276° |
| 2026-04-23 21:33 | 10.56285 | -62.31867 | 25882 ft | 356 kts | 276° |
| 2026-04-23 21:34 | 10.56542 | -62.34359 | 25879 ft | 354 kts | 276° |
| 2026-04-23 21:34 | 10.56793 | -62.36838 | 25881 ft | 352 kts | 276° |
| 2026-04-23 21:34 | 10.57049 | -62.39305 | 25878 ft | 351 kts | 276° |
| 2026-04-23 21:34 | 10.57301 | -62.41767 | 25878 ft | 349 kts | 276° |
| 2026-04-23 21:35 | 10.57551 | -62.44219 | 25880 ft | 348 kts | 276° |
| 2026-04-23 21:35 | 10.57799 | -62.46664 | 25880 ft | 348 kts | 276° |
| 2026-04-23 21:35 | 10.58053 | -62.49103 | 25878 ft | 347 kts | 276° |
| 2026-04-23 21:35 | 10.58294 | -62.51505 | 25880 ft | 346 kts | 276° |
| 2026-04-23 21:36 | 10.58795 | -62.56363 | 25891 ft | 345 kts | 275° |
| 2026-04-23 21:36 | 10.59036 | -62.58784 | 25892 ft | 344 kts | 276° |
| 2026-04-23 21:36 | 10.59285 | -62.61203 | 25890 ft | 344 kts | 276° |
| 2026-04-23 21:37 | 10.59527 | -62.63623 | 25891 ft | 343 kts | 276° |
| 2026-04-23 21:37 | 10.59778 | -62.66035 | 25891 ft | 343 kts | 276° |
| 2026-04-23 21:37 | 10.60017 | -62.68416 | 25893 ft | 343 kts | 276° |
| 2026-04-23 21:37 | 10.60263 | -62.70830 | 25892 ft | 344 kts | 275° |
| 2026-04-23 21:38 | 10.60508 | -62.73248 | 25892 ft | 344 kts | 276° |
| 2026-04-23 21:38 | 10.60751 | -62.75660 | 25892 ft | 343 kts | 276° |
| 2026-04-23 21:38 | 10.60998 | -62.78071 | 25892 ft | 343 kts | 275° |
| 2026-04-23 21:38 | 10.61239 | -62.80479 | 25893 ft | 342 kts | 275° |
| 2026-04-23 21:39 | 10.61484 | -62.82888 | 25892 ft | 342 kts | 275° |
| 2026-04-23 21:39 | 10.61727 | -62.85294 | 25892 ft | 342 kts | 276° |
| 2026-04-23 21:39 | 10.61968 | -62.87660 | 25889 ft | 342 kts | 275° |
| 2026-04-23 21:39 | 10.62207 | -62.90070 | 25892 ft | 343 kts | 275° |
| 2026-04-23 21:40 | 10.62452 | -62.92479 | 25892 ft | 343 kts | 275° |
| 2026-04-23 21:40 | 10.62692 | -62.94887 | 25892 ft | 342 kts | 276° |
| 2026-04-23 21:40 | 10.62938 | -62.97294 | 25892 ft | 342 kts | 275° |
| 2026-04-23 21:40 | 10.63179 | -62.99701 | 25890 ft | 342 kts | 276° |
| 2026-04-23 21:41 | 10.63421 | -63.02107 | 25890 ft | 342 kts | 275° |
| 2026-04-23 21:41 | 10.63657 | -63.04479 | 25891 ft | 342 kts | 275° |
| 2026-04-23 21:41 | 10.63901 | -63.06884 | 25817 ft | 344 kts | 275° |
| 2026-04-23 21:41 | 10.64146 | -63.09340 | 25409 ft | 355 kts | 275° |
| 2026-04-23 21:42 | 10.64399 | -63.11878 | 24938 ft | 366 kts | 275° |
| 2026-04-23 21:42 | 10.64661 | -63.14485 | 24447 ft | 375 kts | 275° |
| 2026-04-23 21:42 | 10.64928 | -63.17148 | 23941 ft | 382 kts | 275° |
| 2026-04-23 21:42 | 10.65199 | -63.19856 | 23441 ft | 388 kts | 275° |
| 2026-04-23 21:43 | 10.65470 | -63.22589 | 22952 ft | 391 kts | 275° |
| 2026-04-23 21:43 | 10.65746 | -63.25351 | 22462 ft | 394 kts | 276° |
| 2026-04-23 21:43 | 10.65947 | -63.28089 | 21986 ft | 394 kts | 273° |
| 2026-04-23 21:43 | 10.66126 | -63.30872 | 21492 ft | 395 kts | 274° |
| 2026-04-23 21:44 | 10.66343 | -63.33660 | 21016 ft | 396 kts | 274° |
| 2026-04-23 21:44 | 10.66540 | -63.36450 | 20539 ft | 395 kts | 274° |
| 2026-04-23 21:44 | 10.66726 | -63.39237 | 20074 ft | 395 kts | 274° |
| 2026-04-23 21:44 | 10.66911 | -63.42018 | 19595 ft | 394 kts | 274° |
| 2026-04-23 21:45 | 10.67107 | -63.44794 | 19131 ft | 393 kts | 274° |
| 2026-04-23 21:45 | 10.67300 | -63.47562 | 18664 ft | 389 kts | 274° |
| 2026-04-23 21:45 | 10.67482 | -63.50225 | 18209 ft | 377 kts | 273° |
| 2026-04-23 21:45 | 10.67656 | -63.52839 | 17746 ft | 366 kts | 274° |
| 2026-04-23 21:46 | 10.67836 | -63.55387 | 17283 ft | 357 kts | 274° |
| 2026-04-23 21:46 | 10.68002 | -63.57876 | 16834 ft | 350 kts | 273° |
| 2026-04-23 21:46 | 10.68172 | -63.60322 | 16391 ft | 344 kts | 274° |
| 2026-04-23 21:46 | 10.68335 | -63.62734 | 15943 ft | 340 kts | 273° |
| 2026-04-23 21:47 | 10.68494 | -63.65115 | 15498 ft | 336 kts | 274° |
| 2026-04-23 21:47 | 10.68659 | -63.67448 | 15058 ft | 326 kts | 273° |
| 2026-04-23 21:47 | 10.68804 | -63.69691 | 14625 ft | 318 kts | 273° |
| 2026-04-23 21:47 | 10.68962 | -63.71912 | 14189 ft | 312 kts | 274° |
| 2026-04-23 21:48 | 10.69106 | -63.74092 | 13756 ft | 306 kts | 273° |
| 2026-04-23 21:48 | 10.69252 | -63.76237 | 13327 ft | 302 kts | 274° |
| 2026-04-23 21:48 | 10.69394 | -63.78355 | 12904 ft | 298 kts | 273° |
| 2026-04-23 21:48 | 10.69538 | -63.80446 | 12486 ft | 295 kts | 273° |
| 2026-04-23 21:49 | 10.69675 | -63.82515 | 12078 ft | 292 kts | 273° |
| 2026-04-23 21:49 | 10.69810 | -63.84561 | 11663 ft | 289 kts | 273° |
| 2026-04-23 21:49 | 10.69956 | -63.86590 | 11251 ft | 287 kts | 273° |
| 2026-04-23 21:49 | 10.70082 | -63.88581 | 10855 ft | 285 kts | 273° |
| 2026-04-23 21:50 | 10.70223 | -63.90589 | 10443 ft | 283 kts | 273° |
| 2026-04-23 21:50 | 10.70352 | -63.92564 | 10036 ft | 277 kts | 273° |
| 2026-04-23 21:50 | 10.70479 | -63.94504 | 9626 ft | 273 kts | 273° |
| 2026-04-23 21:50 | 10.70616 | -63.96415 | 9225 ft | 270 kts | 273° |
| 2026-04-23 21:51 | 10.70735 | -63.98303 | 8823 ft | 267 kts | 273° |
| 2026-04-23 21:51 | 10.70866 | -64.00179 | 8427 ft | 265 kts | 273° |
| 2026-04-23 21:51 | 10.70986 | -64.02043 | 8029 ft | 263 kts | 273° |
| 2026-04-23 21:51 | 10.71325 | -64.03825 | 7616 ft | 261 kts | 291° |
| 2026-04-23 21:52 | 10.72098 | -64.05487 | 7255 ft | 258 kts | 295° |
| 2026-04-23 21:52 | 10.72964 | -64.07069 | 6916 ft | 255 kts | 303° |
| 2026-04-23 21:52 | 10.73939 | -64.08558 | 6578 ft | 252 kts | 306° |
| 2026-04-23 21:52 | 10.75034 | -64.09941 | 6244 ft | 250 kts | 311° |
| 2026-04-23 21:53 | 10.76224 | -64.11228 | 5911 ft | 249 kts | 316° |
| 2026-04-23 21:53 | 10.77500 | -64.12411 | 5582 ft | 247 kts | 321° |
| 2026-04-23 21:53 | 10.78857 | -64.13476 | 5254 ft | 246 kts | 325° |
| 2026-04-23 21:53 | 10.80282 | -64.14416 | 4927 ft | 243 kts | 330° |
| 2026-04-23 21:54 | 10.81758 | -64.15241 | 4603 ft | 242 kts | 335° |
| 2026-04-23 21:54 | 10.83268 | -64.15936 | 4286 ft | 240 kts | 339° |
| 2026-04-23 21:54 | 10.84824 | -64.16445 | 3962 ft | 228 kts | 352° |
| 2026-04-23 21:54 | 10.86305 | -64.16141 | 3655 ft | 216 kts | 30° |
| 2026-04-23 21:55 | 10.87341 | -64.15149 | 3471 ft | 197 kts | 59° |
| 2026-04-23 21:55 | 10.87737 | -64.13873 | 3259 ft | 184 kts | 77° |
| 2026-04-23 21:55 | 10.88024 | -64.12630 | 3078 ft | 176 kts | 75° |
| 2026-04-23 21:55 | 10.88273 | -64.11416 | 2874 ft | 179 kts | 77° |
| 2026-04-23 21:56 | 10.88558 | -64.10142 | 2612 ft | 192 kts | 76° |
| 2026-04-23 21:56 | 10.88886 | -64.08849 | 2340 ft | 191 kts | 79° |
| 2026-04-23 21:56 | 10.88818 | -64.07555 | 2151 ft | 171 kts | 89° |
| 2026-04-23 21:56 | 10.89036 | -64.06406 | 2237 ft | 158 kts | 76° |
| 2026-04-23 21:57 | 10.89379 | -64.05342 | 2157 ft | 160 kts | 70° |
| 2026-04-23 21:57 | 10.89685 | -64.04256 | 2036 ft | 146 kts | 73° |
| 2026-04-23 21:57 | 10.89890 | -64.03367 | 1816 ft | 120 kts | 79° |
| 2026-04-23 21:57 | 10.90035 | -64.02557 | 1523 ft | 112 kts | 78° |
| 2026-04-23 21:58 | 10.90195 | -64.01757 | 1169 ft | 121 kts | 77° |
| 2026-04-23 21:58 | 10.90359 | -64.00928 | 929 ft | 119 kts | 78° |
| 2026-04-23 21:58 | 10.90546 | -64.00128 | 648 ft | 114 kts | 76° |
| 2026-04-23 21:58 | 10.90703 | -63.99354 | 417 ft | 109 kts | 77° |
| 2026-04-23 21:59 | 10.90856 | -63.98623 | 231 ft | 104 kts | 77° |
| 2026-04-23 21:59 | 10.91006 | -63.97907 | 73 ft | 104 kts | 78° |
| 2026-04-23 21:59 | 10.91136 | -63.97279 | 64 ft | 69 kts | 77° |
| 2026-04-23 22:00 | 10.91279 | -63.97137 | 56 ft | 15 kts | 347° |
| 2026-04-23 22:00 | 10.91367 | -63.97167 | 56 ft | 14 kts | 346° |
| 2026-04-23 22:00 | 10.91431 | -63.97157 | 56 ft | 8 kts | 2° |
| 2026-04-23 22:00 | 10.91451 | -63.97144 | 53 ft | 0 kts | 82° |